createdAt,value
2023-10-23T00:02:04.537Z,102035.38
2023-10-23T00:04:31.930Z,102030.30
2023-10-23T00:07:00.098Z,102025.77
2023-10-23T00:09:27.468Z,102025.94
2023-10-23T00:11:54.745Z,102019.98
2023-10-23T00:14:22.545Z,102022.13
2023-10-23T00:16:49.912Z,102016.89
2023-10-23T00:19:17.370Z,102015.27
2023-10-23T00:21:45.802Z,102012.79
2023-10-23T00:24:13.253Z,102007.21
2023-10-23T00:26:40.542Z,102004.73
2023-10-23T00:29:07.857Z,102001.88
2023-10-23T00:31:35.232Z,101998.15
2023-10-23T00:34:02.751Z,101998.36
2023-10-23T00:36:30.114Z,101991.88
2023-10-23T00:38:57.664Z,101991.52
2023-10-23T00:41:24.942Z,101991.52
2023-10-23T00:43:52.331Z,101994.41
2023-10-23T00:46:20.688Z,101990.23
2023-10-23T00:48:48.348Z,101992.93
2023-10-23T00:51:16.183Z,101987.31
2023-10-23T00:53:43.895Z,101983.71
2023-10-23T00:56:11.431Z,101984.83
2023-10-23T00:58:42.701Z,101983.95
2023-10-23T01:01:13.201Z,101984.58
2023-10-23T01:06:08.861Z,101973.56
2023-10-23T01:08:37.394Z,101970.73
2023-10-23T01:11:04.695Z,101958.73
2023-10-23T01:13:32.153Z,101954.64
2023-10-23T01:15:59.527Z,101945.86
2023-10-23T01:18:26.888Z,101945.34
2023-10-23T01:20:54.350Z,101942.15
2023-10-23T01:23:25.101Z,101938.17
2023-10-23T01:25:53.132Z,101942.86
2023-10-23T01:28:20.408Z,101932.03
2023-10-23T01:30:48.679Z,101925.72
2023-10-23T01:33:17.716Z,101927.88
2023-10-23T01:35:45.097Z,101927.90
2023-10-23T01:38:14.295Z,101928.44
2023-10-23T01:40:41.633Z,101928.79
2023-10-23T01:43:08.988Z,101929.16
2023-10-23T01:45:37.398Z,101934.77
2023-10-23T01:48:05.660Z,101934.42
2023-10-23T01:50:32.988Z,101930.13
2023-10-23T01:53:00.345Z,101916.27
2023-10-23T01:55:27.757Z,101910.33
2023-10-23T01:57:58.578Z,101913.94
2023-10-23T02:00:26.322Z,101918.45
2023-10-23T02:02:55.168Z,101911.95
2023-10-23T02:05:22.654Z,101907.59
2023-10-23T02:07:49.899Z,101907.57
2023-10-23T02:10:17.237Z,101906.47
2023-10-23T02:12:44.605Z,101902.83
2023-10-23T02:15:12.110Z,101901.11
2023-10-23T02:17:39.631Z,101901.26
2023-10-23T02:20:07.478Z,101899.08
2023-10-23T02:22:35.653Z,101891.67
2023-10-23T02:25:03.053Z,101895.08
2023-10-23T02:27:30.391Z,101889.45
2023-10-23T02:29:57.824Z,101893.92
2023-10-23T02:32:25.186Z,101907.94
2023-10-23T02:34:52.479Z,101913.66
2023-10-23T02:37:19.803Z,101913.08
2023-10-23T02:39:47.132Z,101919.38
2023-10-23T02:42:14.449Z,101915.37
2023-10-23T02:44:41.720Z,101916.24
2023-10-23T02:47:09.286Z,101909.21
2023-10-23T02:49:36.711Z,101906.86
2023-10-23T02:52:04.854Z,101911.40
2023-10-23T02:54:32.293Z,101910.90
2023-10-23T02:56:59.645Z,101910.03
2023-10-23T02:59:27.282Z,101905.54
2023-10-23T03:01:54.626Z,101905.20
2023-10-23T03:04:22.045Z,101903.85
2023-10-23T03:06:49.457Z,101901.17
2023-10-23T03:09:16.736Z,101895.42
2023-10-23T03:11:44.080Z,101893.65
2023-10-23T03:14:12.109Z,101897.64
2023-10-23T03:16:39.596Z,101896.40
2023-10-23T03:19:06.963Z,101893.36
2023-10-23T03:21:34.339Z,101887.09
2023-10-23T03:24:01.837Z,101890.34
2023-10-23T03:26:29.531Z,101890.91
2023-10-23T03:28:57.087Z,101886.27
2023-10-23T03:31:24.477Z,101885.03
2023-10-23T03:33:53.254Z,101882.89
2023-10-23T03:36:20.746Z,101884.18
2023-10-23T03:38:48.615Z,101882.95
2023-10-23T03:41:15.915Z,101880.64
2023-10-23T03:43:43.267Z,101877.41
2023-10-23T03:46:11.197Z,101874.90
2023-10-23T03:48:38.934Z,101873.83
2023-10-23T03:51:06.326Z,101871.35
2023-10-23T03:53:33.756Z,101867.23
2023-10-23T03:56:01.284Z,101870.52
2023-10-23T03:58:28.641Z,101862.08
2023-10-23T04:00:56.031Z,101862.13
2023-10-23T04:03:23.728Z,101858.39
2023-10-23T04:05:51.223Z,101853.56
2023-10-23T04:08:18.634Z,101854.32
2023-10-23T04:10:47.906Z,101852.19
2023-10-23T04:13:16.171Z,101858.94
2023-10-23T04:16:03.985Z,101853.58
2023-10-23T04:18:31.643Z,101883.04
2023-10-23T04:22:53.812Z,101772.38
2023-10-23T04:25:21.605Z,102028.90
2023-10-23T04:27:49.043Z,101988.54
2023-10-23T04:30:17.867Z,101968.56
2023-10-23T04:32:45.375Z,101956.20
2023-10-23T04:35:12.904Z,101940.58
2023-10-23T04:37:40.215Z,101932.48
2023-10-23T04:40:08.648Z,101927.84
2023-10-23T04:42:36.082Z,101918.66
2023-10-23T04:45:03.636Z,101912.20
2023-10-23T04:47:30.989Z,101910.95
2023-10-23T04:49:58.292Z,101904.52
2023-10-23T04:52:25.620Z,101896.02
2023-10-23T04:54:53.842Z,101893.17
2023-10-23T04:57:21.207Z,101892.80
2023-10-23T04:59:48.472Z,101888.63
2023-10-23T05:02:15.846Z,101885.18
2023-10-23T05:04:43.180Z,101887.55
2023-10-23T05:07:10.688Z,101885.56
2023-10-23T05:09:38.616Z,101884.68
2023-10-23T05:12:06.578Z,101889.56
2023-10-23T05:14:34.651Z,101885.59
2023-10-23T05:17:01.994Z,101887.39
2023-10-23T05:19:29.392Z,101884.67
2023-10-23T05:21:56.688Z,101889.83
2023-10-23T05:24:25.154Z,101898.23
2023-10-23T05:26:53.046Z,101911.48
2023-10-23T05:29:20.508Z,101918.04
2023-10-23T05:31:48.375Z,101928.39
2023-10-23T05:34:15.723Z,101935.51
2023-10-23T05:36:43.029Z,101936.70
2023-10-23T05:39:10.507Z,101943.99
2023-10-23T05:41:37.833Z,101942.13
2023-10-23T05:44:05.410Z,101948.20
2023-10-23T05:46:32.889Z,101951.89
2023-10-23T05:49:00.993Z,101954.54
2023-10-23T05:51:28.443Z,101955.77
2023-10-23T05:53:57.890Z,101961.70
2023-10-23T05:56:25.253Z,101967.21
2023-10-23T05:58:52.528Z,101971.81
2023-10-23T06:01:19.964Z,101974.45
2023-10-23T06:03:47.488Z,101984.27
2023-10-23T06:06:14.945Z,101987.28
2023-10-23T06:08:42.314Z,101990.25
2023-10-23T06:11:13.106Z,101995.20
2023-10-23T06:13:40.425Z,102010.09
2023-10-23T06:16:08.495Z,102013.78
2023-10-23T06:18:36.754Z,102021.25
2023-10-23T06:21:05.525Z,102027.42
2023-10-23T06:23:42.061Z,102035.81
2023-10-23T06:26:09.610Z,102061.71
2023-10-23T06:28:37.100Z,102056.20
2023-10-23T06:31:08.328Z,102063.83
2023-10-23T06:33:36.678Z,102077.95
2023-10-23T06:36:10.490Z,102091.49
2023-10-23T06:38:38.039Z,102110.28
2023-10-23T06:41:06.352Z,102107.98
2023-10-23T06:43:34.294Z,102122.50
2023-10-23T06:46:02.982Z,102128.86
2023-10-23T06:48:31.889Z,102131.81
2023-10-23T06:50:59.762Z,102140.38
2023-10-23T06:53:27.341Z,102142.26
2023-10-23T06:55:55.294Z,102154.25
2023-10-23T06:58:22.698Z,102159.77
2023-10-23T07:00:50.123Z,102169.79
2023-10-23T07:03:17.790Z,102177.32
2023-10-23T07:05:45.263Z,102181.05
2023-10-23T07:08:13.490Z,102189.51
2023-10-23T07:10:40.810Z,102197.18
2023-10-23T07:13:21.282Z,102205.91
2023-10-23T07:15:53.090Z,102243.11
2023-10-23T07:18:20.862Z,102243.10
2023-10-23T07:20:55.983Z,102249.13
2023-10-23T07:23:23.591Z,102271.30
2023-10-23T07:26:04.682Z,102262.04
2023-10-23T07:28:32.156Z,102282.12
2023-10-23T07:31:02.796Z,102262.23
2023-10-23T07:33:30.137Z,102273.91
2023-10-23T07:36:08.036Z,102271.99
2023-10-23T07:38:37.013Z,102290.41
2023-10-23T07:41:04.608Z,102279.91
2023-10-23T07:43:32.184Z,102275.19
2023-10-23T07:46:14.576Z,102279.52
2023-10-23T07:48:43.752Z,102321.96
2023-10-23T07:51:11.212Z,102296.55
2023-10-23T07:53:38.591Z,102307.86
2023-10-23T07:56:06.169Z,102312.31
2023-10-23T07:58:33.683Z,102321.08
2023-10-23T08:01:12.079Z,102327.84
2023-10-23T08:03:39.954Z,102359.10
2023-10-23T08:06:08.638Z,102338.91
2023-10-23T08:08:36.900Z,102333.74
2023-10-23T08:11:04.947Z,102326.94
2023-10-23T08:13:32.659Z,102332.54
2023-10-23T08:16:01.277Z,102334.25
2023-10-23T08:18:38.168Z,102344.02
2023-10-23T08:21:09.762Z,102366.80
2023-10-23T08:23:37.141Z,102359.45
2023-10-23T08:26:05.140Z,102362.36
2023-10-23T08:28:49.407Z,102373.52
2023-10-23T08:31:37.007Z,102426.82
2023-10-23T08:34:07.351Z,102433.63
2023-10-23T08:36:35.425Z,102415.16
2023-10-23T08:39:04.372Z,102424.27
2023-10-23T08:41:32.391Z,102435.75
2023-10-23T08:43:59.754Z,102434.98
2023-10-23T08:46:28.188Z,102433.54
2023-10-23T08:48:55.714Z,102443.28
2023-10-23T08:51:23.098Z,102447.71
2023-10-23T08:56:21.561Z,102461.56
2023-10-23T08:58:53.626Z,102458.06
2023-10-23T09:01:21.028Z,102482.00
2023-10-23T09:04:05.154Z,102481.77
2023-10-23T09:06:34.398Z,102520.30
2023-10-23T09:09:02.035Z,102500.71
2023-10-23T09:11:45.990Z,102488.06
2023-10-23T09:14:32.264Z,102525.23
2023-10-23T09:17:00.735Z,102528.83
2023-10-23T09:19:31.022Z,102508.02
2023-10-23T09:21:58.677Z,102516.21
2023-10-23T09:24:26.102Z,102499.84
2023-10-23T09:26:53.599Z,102497.58
2023-10-23T09:29:24.821Z,102485.11
2023-10-23T09:31:53.046Z,102483.13
2023-10-23T09:34:20.682Z,102483.38
2023-10-23T09:36:49.180Z,102476.41
2023-10-23T09:39:17.003Z,102484.83
2023-10-23T09:41:48.922Z,102472.50
2023-10-23T09:44:16.580Z,102487.27
2023-10-23T09:46:43.985Z,102481.71
2023-10-23T09:49:12.079Z,102487.59
2023-10-23T09:51:43.126Z,102488.60
2023-10-23T09:54:16.790Z,102496.98
2023-10-23T09:56:52.013Z,102500.36
2023-10-23T09:59:22.123Z,102511.95
2023-10-23T10:01:51.538Z,102510.76
2023-10-23T10:04:34.377Z,102513.49
2023-10-23T10:07:06.050Z,102537.21
2023-10-23T10:09:33.473Z,102524.48
2023-10-23T10:12:00.789Z,102507.88
2023-10-23T10:14:28.364Z,102491.36
2023-10-23T10:16:58.689Z,102481.05
2023-10-23T10:19:26.801Z,102482.68
2023-10-23T10:22:02.386Z,102477.38
2023-10-23T10:24:29.719Z,102479.46
2023-10-23T10:26:57.126Z,102463.49
2023-10-23T10:29:26.909Z,102463.32
2023-10-23T10:32:12.070Z,102480.42
2023-10-23T10:34:46.477Z,102504.36
2023-10-23T10:39:49.332Z,102479.16
2023-10-23T10:42:27.161Z,102475.93
2023-10-23T10:44:55.352Z,102486.43
2023-10-23T10:47:46.987Z,102464.30
2023-10-23T10:50:30.403Z,102494.08
2023-10-23T10:53:01.041Z,102482.63
2023-10-23T10:55:28.487Z,102458.42
2023-10-23T10:57:55.910Z,102437.85
2023-10-23T11:00:26.666Z,102424.75
2023-10-23T11:02:56.756Z,102419.89
2023-10-23T11:05:24.572Z,102418.23
2023-10-23T11:07:53.049Z,102407.45
2023-10-23T11:10:21.758Z,102410.05
2023-10-23T11:12:51.209Z,102413.33
2023-10-23T11:15:19.373Z,102420.20
2023-10-23T11:17:47.005Z,102425.55
2023-10-23T11:20:14.892Z,102431.16
2023-10-23T11:22:45.963Z,102434.35
2023-10-23T11:25:13.399Z,102442.20
2023-10-23T11:27:41.122Z,102434.86
2023-10-23T11:30:09.046Z,102443.48
2023-10-23T11:32:36.506Z,102447.06
2023-10-23T11:35:05.693Z,102443.06
2023-10-23T11:37:42.445Z,102441.76
2023-10-23T11:40:11.347Z,102457.79
2023-10-23T11:42:49.599Z,102442.44
2023-10-23T11:45:18.478Z,102470.39
2023-10-23T11:47:46.432Z,102458.98
2023-10-23T11:50:14.366Z,102465.59
2023-10-23T11:52:45.031Z,102464.40
2023-10-23T11:55:21.575Z,102472.41
2023-10-23T11:57:51.850Z,102486.06
2023-10-23T12:00:21.329Z,102477.41
2023-10-23T12:02:48.907Z,102462.64
2023-10-23T12:05:18.090Z,102452.77
2023-10-23T12:07:49.920Z,102445.03
2023-10-23T12:10:20.260Z,102445.59
2023-10-23T12:12:48.094Z,102435.64
2023-10-23T12:15:16.308Z,102421.39
2023-10-23T12:17:43.714Z,102412.77
2023-10-23T12:20:13.125Z,102405.70
2023-10-23T12:22:42.740Z,102404.61
2023-10-23T12:25:10.707Z,102404.27
2023-10-23T12:27:38.428Z,102391.25
2023-10-23T12:30:09.377Z,102382.98
2023-10-23T12:33:14.316Z,102386.55
2023-10-23T12:35:25.231Z,102408.20
2023-10-23T12:37:52.623Z,102374.20
2023-10-23T12:40:20.151Z,102364.33
2023-10-23T12:42:47.622Z,102359.52
2023-10-23T12:45:14.958Z,102346.79
2023-10-23T12:47:42.380Z,102337.33
2023-10-23T12:50:10.004Z,102329.18
2023-10-23T12:52:37.348Z,102318.31
2023-10-23T12:55:05.617Z,102305.67
2023-10-23T12:57:32.949Z,102297.85
2023-10-23T13:00:00.413Z,102282.98
2023-10-23T13:02:27.743Z,102266.81
2023-10-23T13:04:55.244Z,102258.20
2023-10-23T13:07:22.710Z,102249.89
2023-10-23T13:09:50.152Z,102239.55
2023-10-23T13:12:17.676Z,102237.33
2023-10-23T13:14:45.010Z,102231.72
2023-10-23T13:17:12.447Z,102230.54
2023-10-23T13:19:39.966Z,102224.85
2023-10-23T13:22:11.878Z,102216.63
2023-10-23T13:24:39.383Z,102213.88
2023-10-23T13:27:06.809Z,102194.83
2023-10-23T13:29:34.182Z,102185.93
2023-10-23T13:32:01.671Z,102173.02
2023-10-23T13:34:29.089Z,102162.44
2023-10-23T13:36:57.125Z,102157.63
2023-10-23T13:39:24.466Z,102147.56
2023-10-23T13:41:51.900Z,102135.19
2023-10-23T13:44:19.186Z,102125.29
2023-10-23T13:46:46.788Z,102113.34
2023-10-23T13:49:14.112Z,102113.52
2023-10-23T13:51:41.574Z,102109.55
2023-10-23T13:54:08.967Z,102102.05
2023-10-23T13:56:37.132Z,102094.61
2023-10-23T13:59:04.482Z,102087.55
2023-10-23T14:01:31.941Z,102079.11
2023-10-23T14:03:59.577Z,102055.86
2023-10-23T14:06:28.731Z,102047.44
2023-10-23T14:09:41.850Z,102037.04
2023-10-23T14:11:59.782Z,102042.76
2023-10-23T14:14:29.639Z,102032.34
2023-10-23T14:16:59.361Z,101993.88
2023-10-23T14:19:42.551Z,101975.45
2023-10-23T14:22:13.938Z,101994.91
2023-10-23T14:24:41.567Z,101959.54
2023-10-23T14:27:10.412Z,101946.38
2023-10-23T14:29:38.584Z,101941.70
2023-10-23T14:32:07.144Z,101927.29
2023-10-23T14:34:34.713Z,101919.75
2023-10-23T14:37:02.209Z,101904.31
2023-10-23T14:39:30.745Z,101899.16
2023-10-23T14:41:58.217Z,101890.80
2023-10-23T14:44:25.713Z,101885.30
2023-10-23T14:46:53.403Z,101883.08
2023-10-23T14:49:22.632Z,101874.88
2023-10-23T14:51:53.687Z,101873.02
2023-10-23T14:54:21.140Z,101867.14
2023-10-23T14:56:51.339Z,101855.64
2023-10-23T14:59:18.975Z,101856.37
2023-10-23T15:01:46.465Z,101843.16
2023-10-23T15:04:14.370Z,101844.77
2023-10-23T15:06:41.707Z,101839.71
2023-10-23T15:09:09.009Z,101834.67
2023-10-23T15:11:36.258Z,101830.02
2023-10-23T15:14:05.103Z,101822.89
2023-10-23T15:16:34.591Z,101823.20
2023-10-23T15:19:04.195Z,101819.73
2023-10-23T15:21:31.836Z,101808.27
2023-10-23T15:23:59.752Z,101803.00
2023-10-23T15:26:27.145Z,101792.13
2023-10-23T15:28:54.545Z,101784.49
2023-10-23T15:31:21.927Z,101778.08
2023-10-23T15:33:49.375Z,101768.58
2023-10-23T15:36:16.690Z,101761.75
2023-10-23T15:38:44.032Z,101761.48
2023-10-23T15:41:12.510Z,101756.70
2023-10-23T15:43:40.738Z,101754.79
2023-10-23T15:46:15.818Z,101750.23
2023-10-23T15:48:43.450Z,101752.89
2023-10-23T15:51:10.803Z,101737.38
2023-10-23T15:53:38.360Z,101723.69
2023-10-23T15:56:05.987Z,101707.59
2023-10-23T15:58:35.822Z,101702.64
2023-10-23T16:01:07.906Z,101697.68
2023-10-23T16:03:35.785Z,101699.20
2023-10-23T16:06:04.983Z,101690.90
2023-10-23T16:08:32.289Z,101679.98
2023-10-23T16:11:00.311Z,101673.52
2023-10-23T16:13:32.552Z,101670.33
2023-10-23T16:16:14.989Z,101676.52
2023-10-23T16:18:45.868Z,101676.41
2023-10-23T16:21:14.364Z,101654.14
2023-10-23T16:23:41.649Z,101649.01
2023-10-23T16:26:08.927Z,101640.84
2023-10-23T16:28:36.380Z,101630.80
2023-10-23T16:31:04.007Z,101626.30
2023-10-23T16:33:31.829Z,101622.70
2023-10-23T16:35:59.217Z,101616.20
2023-10-23T16:39:40.476Z,101645.68
2023-10-23T16:42:08.010Z,101788.73
2023-10-23T16:44:52.436Z,101747.61
2023-10-23T16:47:22.907Z,101744.77
2023-10-23T16:49:50.519Z,101701.38
2023-10-23T16:52:17.859Z,101681.27
2023-10-23T16:54:47.688Z,101665.48
2023-10-23T16:57:15.226Z,101655.97
2023-10-23T16:59:42.613Z,101638.85
2023-10-23T17:02:10.622Z,101633.61
2023-10-23T17:04:38.640Z,101626.23
2023-10-23T17:07:06.027Z,101615.98
2023-10-23T17:09:33.532Z,101607.95
2023-10-23T17:12:00.949Z,101603.52
2023-10-23T17:14:28.470Z,101596.88
2023-10-23T17:16:55.907Z,101598.88
2023-10-23T17:19:23.271Z,101598.50
2023-10-23T17:21:50.708Z,101594.30
2023-10-23T17:24:18.062Z,101594.39
2023-10-23T17:26:45.484Z,101591.42
2023-10-23T17:29:12.755Z,101592.45
2023-10-23T17:31:40.148Z,101589.67
2023-10-23T17:34:07.723Z,101588.17
2023-10-23T17:36:35.748Z,101584.97
2023-10-23T17:39:03.248Z,101580.49
2023-10-23T17:41:31.597Z,101572.27
2023-10-23T17:43:58.914Z,101568.92
2023-10-23T17:46:26.434Z,101563.73
2023-10-23T17:48:53.908Z,101564.98
2023-10-23T17:51:21.228Z,101560.83
2023-10-23T17:56:18.778Z,101560.78
2023-10-23T17:58:46.168Z,101552.30
2023-10-23T18:01:14.047Z,101549.59
2023-10-23T18:03:41.645Z,101545.69
2023-10-23T18:06:11.358Z,101538.95
2023-10-23T18:08:39.554Z,101535.59
2023-10-23T18:11:11.326Z,101531.11
2023-10-23T18:13:39.146Z,101531.77
2023-10-23T18:16:07.591Z,101524.80
2023-10-23T18:18:35.008Z,101521.21
2023-10-23T18:21:04.968Z,101517.10
2023-10-23T18:23:32.273Z,101511.90
2023-10-23T18:26:01.112Z,101505.52
2023-10-23T18:28:29.474Z,101504.90
2023-10-23T18:30:58.878Z,101501.05
2023-10-23T18:33:26.336Z,101505.69
2023-10-23T18:36:01.306Z,101497.58
2023-10-23T18:38:28.937Z,101502.04
2023-10-23T18:40:56.606Z,101486.86
2023-10-23T18:43:27.352Z,101481.77
2023-10-23T18:45:56.078Z,101483.52
2023-10-23T18:48:23.777Z,101474.73
2023-10-23T18:51:01.156Z,101468.84
2023-10-23T18:53:29.151Z,101471.98
2023-10-23T18:55:56.449Z,101455.91
2023-10-23T18:58:24.099Z,101440.86
2023-10-23T19:00:52.203Z,101431.83
2023-10-23T19:03:19.652Z,101427.98
2023-10-23T19:05:47.044Z,101420.73
2023-10-23T19:08:14.594Z,101410.58
2023-10-23T19:10:41.955Z,101407.05
2023-10-23T19:13:09.608Z,101401.89
2023-10-23T19:15:36.990Z,101402.11
2023-10-23T19:18:04.402Z,101401.05
2023-10-23T19:20:32.174Z,101393.73
2023-10-23T19:22:59.552Z,101388.09
2023-10-23T19:25:28.643Z,101380.42
2023-10-23T19:27:56.102Z,101379.83
2023-10-23T19:30:23.736Z,101376.89
2023-10-23T19:32:52.685Z,101368.90
2023-10-23T19:35:20.706Z,101366.48
2023-10-23T19:37:48.751Z,101362.21
2023-10-23T19:40:16.726Z,101360.28
2023-10-23T19:42:44.282Z,101354.73
2023-10-23T19:45:12.344Z,101345.48
2023-10-23T19:47:40.294Z,101341.63
2023-10-23T19:50:10.299Z,101339.56
2023-10-23T19:52:39.212Z,101339.82
2023-10-23T19:55:42.700Z,101335.76
2023-10-23T19:57:55.681Z,101352.08
2023-10-23T20:00:23.258Z,101332.57
2023-10-23T20:02:51.750Z,101324.53
2023-10-23T20:05:19.904Z,101321.55
2023-10-23T20:07:47.304Z,101316.52
2023-10-23T20:10:16.629Z,101311.83
2023-10-23T20:12:45.876Z,101318.50
2023-10-23T20:15:13.253Z,101312.05
2023-10-23T20:17:40.754Z,101309.20
2023-10-23T20:20:09.994Z,101303.81
2023-10-23T20:22:37.343Z,101299.55
2023-10-23T20:25:05.340Z,101289.39
2023-10-23T20:27:32.893Z,101292.36
2023-10-23T20:30:00.321Z,101284.73
2023-10-23T20:32:27.897Z,101282.68
2023-10-23T20:34:55.619Z,101274.35
2023-10-23T20:37:22.965Z,101267.80
2023-10-23T20:39:50.270Z,101263.02
2023-10-23T20:42:17.747Z,101256.03
2023-10-23T20:44:45.405Z,101257.48
2023-10-23T20:47:15.720Z,101252.81
2023-10-23T20:49:43.511Z,101254.29
2023-10-23T20:52:10.864Z,101245.69
2023-10-23T20:54:38.149Z,101247.33
2023-10-23T20:57:05.811Z,101242.30
2023-10-23T20:59:33.091Z,101241.59
2023-10-23T21:02:00.697Z,101238.74
2023-10-23T21:04:28.521Z,101235.38
2023-10-23T21:06:56.039Z,101228.77
2023-10-23T21:09:23.400Z,101228.12
2023-10-23T21:11:51.436Z,101223.34
2023-10-23T21:14:18.793Z,101215.84
2023-10-23T21:16:46.258Z,101211.40
2023-10-23T21:19:13.860Z,101208.56
2023-10-23T21:21:41.241Z,101202.73
2023-10-23T21:24:08.689Z,101197.60
2023-10-23T21:26:36.026Z,101195.40
2023-10-23T21:29:22.405Z,101189.91
2023-10-23T21:31:51.112Z,101207.82
2023-10-23T21:34:18.754Z,101189.03
2023-10-23T21:36:46.270Z,101183.52
2023-10-23T21:39:13.550Z,101177.79
2023-10-23T21:41:41.459Z,101171.90
2023-10-23T21:44:09.098Z,101173.34
2023-10-23T21:46:36.520Z,101172.48
2023-10-23T21:49:11.292Z,101170.16
2023-10-23T21:51:39.540Z,101171.79
2023-10-23T21:54:07.334Z,101166.77
2023-10-23T21:56:45.155Z,101162.64
2023-10-23T21:59:22.757Z,101172.34
2023-10-23T22:01:53.731Z,101152.39
2023-10-23T22:04:21.871Z,101156.31
2023-10-23T22:06:49.886Z,101150.77
2023-10-23T22:09:17.682Z,101149.52
2023-10-23T22:11:45.420Z,101148.81
2023-10-23T22:14:12.987Z,101147.73
2023-10-23T22:16:40.308Z,101147.56
2023-10-23T22:19:07.774Z,101148.27
2023-10-23T22:21:35.187Z,101148.61
2023-10-23T22:24:02.935Z,101147.00
2023-10-23T22:26:30.875Z,101147.01
2023-10-23T22:28:58.200Z,101143.40
2023-10-23T22:31:25.660Z,101142.34
2023-10-23T22:33:53.082Z,101143.23
2023-10-23T22:36:20.520Z,101141.40
2023-10-23T22:38:47.922Z,101145.67
2023-10-23T22:41:15.534Z,101146.02
2023-10-23T22:43:42.891Z,101146.54
2023-10-23T22:46:10.472Z,101148.30
2023-10-23T22:48:37.894Z,101147.92
2023-10-23T22:51:05.592Z,101149.70
2023-10-23T22:53:36.799Z,101151.79
2023-10-23T22:56:04.798Z,101152.75
2023-10-23T22:58:32.551Z,101152.84
2023-10-23T23:01:00.444Z,101150.42
2023-10-23T23:03:28.114Z,101156.09
2023-10-23T23:05:58.012Z,101158.23
2023-10-23T23:08:25.329Z,101157.46
2023-10-23T23:10:53.065Z,101156.89
2023-10-23T23:13:20.608Z,101160.64
2023-10-23T23:15:48.015Z,101162.92
2023-10-23T23:18:15.437Z,101156.61
2023-10-23T23:20:43.032Z,101157.12
2023-10-23T23:23:10.360Z,101157.82
2023-10-23T23:25:37.871Z,101159.08
2023-10-23T23:28:05.517Z,101163.03
2023-10-23T23:30:32.918Z,101162.17
2023-10-23T23:33:00.364Z,101159.40
2023-10-23T23:35:27.760Z,101153.21
2023-10-23T23:37:55.025Z,101150.52
2023-10-23T23:40:22.427Z,101147.63
2023-10-23T23:42:49.847Z,101144.16
2023-10-23T23:45:17.182Z,101139.41
2023-10-23T23:47:44.470Z,101132.48
2023-10-23T23:50:11.830Z,101127.88
2023-10-23T23:52:39.129Z,101126.51
2023-10-23T23:55:06.999Z,101125.33
2023-10-23T23:57:35.114Z,101120.86
